| time (UTC) | temp C | wind direction | speed KPH | gust KPH | rain 1hr cm | rain 24hr cm | rain mn cm | humidity % | barometer mb |
| 20260906221209 | 37 | 135 | 3.2 | 4.8 | 0.00 | 0.00 | 0.00 | 37 | 1012.4 |
| 20260906220704 | 37 | 120 | 3.2 | 4.8 | 0.00 | 0.00 | 0.00 | 38 | 1012.4 |
| 20260906220159 | 36 | 141 | 3.2 | 4.8 | 0.00 | 0.00 | 0.00 | 39 | 1012.4 |
| 20260906215658 | 37 | 121 | 8.0 | 12.9 | 0.00 | 0.00 | 0.00 | 38 | 1012.4 |
| 20260906215157 | 38 | 154 | 8.0 | 12.9 | 0.00 | 0.00 | 0.00 | 38 | 1012.4 |
| 20260906214655 | 38 | 116 | 9.7 | 11.3 | 0.00 | 0.00 | 0.00 | 38 | 1012.4 |
| 20260906214150 | 36 | 149 | 1.6 | 3.2 | 0.00 | 0.00 | 0.00 | 39 | 1012.7 |
| 20260906213650 | 36 | 130 | 8.0 | 9.7 | 0.00 | 0.00 | 0.00 | 40 | 1012.7 |
| 20260906213144 | 37 | 131 | 8.0 | 9.7 | 0.00 | 0.00 | 0.00 | 38 | 1012.7 |
| 20260906212642 | 39 | 120 | 17.7 | 22.5 | 0.00 | 0.00 | 0.00 | 37 | 1012.7 |
| 20260906212137 | 38 | 156 | 6.4 | 9.7 | 0.00 | 0.00 | 0.00 | 36 | 1013.1 |
| 20260906211637 | 38 | 143 | 3.2 | 4.8 | 0.00 | 0.00 | 0.00 | 36 | 1013.1 |
| 20260906211132 | 37 | 151 | 4.8 | 4.8 | 0.00 | 0.00 | 0.00 | 39 | 1013.1 |
| 20260906210628 | 37 | 135 | 8.0 | 12.9 | 0.00 | 0.00 | 0.00 | 37 | 1012.7 |
| 20260906210123 | 38 | 113 | 8.0 | 12.9 | 0.00 | 0.00 | 0.00 | 38 | 1013.4 |
| 20260906205618 | 39 | 143 | 8.0 | 8.0 | 0.00 | 0.00 | 0.00 | 37 | 1013.1 |
| 20260906205114 | 38 | 157 | 1.6 | 1.6 | 0.00 | 0.00 | 0.00 | 37 | 1013.1 |
| 20260906204613 | 37 | 133 | 4.8 | 9.7 | 0.00 | 0.00 | 0.00 | 38 | 1012.7 |
| 20260906204108 | 38 | 131 | 8.0 | 11.3 | 0.00 | 0.00 | 0.00 | 36 | 1013.4 |
| 20260906203608 | 38 | 151 | 3.2 | 3.2 | 0.00 | 0.00 | 0.00 | 36 | 1013.1 |
| 20260906203103 | 37 | 109 | 6.4 | 9.7 | 0.00 | 0.00 | 0.00 | 39 | 1013.4 |
| 20260906202600 | 38 | 131 | 6.4 | 11.3 | 0.00 | 0.00 | 0.00 | 38 | 1013.4 |
| 20260906202059 | 38 | 154 | 3.2 | 8.0 | 0.00 | 0.00 | 0.00 | 37 | 1013.4 |
| 20260906201554 | 36 | 154 | 0.0 | 1.6 | 0.00 | 0.00 | 0.00 | 41 | 1013.4 |
| 20260906201053 | 36 | 107 | 6.4 | 11.3 | 0.00 | 0.00 | 0.00 | 42 | 1013.4 |
| 20260906200549 | 36 | 129 | 3.2 | 3.2 | 0.00 | 0.00 | 0.00 | 41 | 1013.7 |
| 20260906200045 | 37 | 152 | 3.2 | 8.0 | 0.00 | 0.00 | 0.00 | 39 | 1013.7 |
| 20260906195540 | 38 | 127 | 4.8 | 8.0 | 0.00 | 0.00 | 0.00 | 38 | 1013.7 |
| 20260906195037 | 38 | 147 | 1.6 | 3.2 | 0.00 | 0.00 | 0.00 | 39 | 1013.7 |
| 20260906194532 | 38 | 108 | 8.0 | 9.7 | 0.00 | 0.00 | 0.00 | 39 | 1013.4 |
| 20260906194028 | 37 | 173 | 1.6 | 1.6 | 0.00 | 0.00 | 0.00 | 40 | 1013.7 |
| 20260906193527 | 37 | 141 | 11.3 | 16.1 | 0.00 | 0.00 | 0.00 | 41 | 1014.1 |
| 20260906193023 | 36 | 125 | 9.7 | 16.1 | 0.00 | 0.00 | 0.00 | 40 | 1013.7 |
| 20260906192518 | 37 | 191 | 8.0 | 9.7 | 0.00 | 0.00 | 0.00 | 40 | 1014.1 |
| 20260906192017 | 37 | 143 | 3.2 | 3.2 | 0.00 | 0.00 | 0.00 | 42 | 1014.1 |
| 20260906191513 | 37 | 152 | 1.6 | 1.6 | 0.00 | 0.00 | 0.00 | 42 | 1014.1 |
| 20260906191012 | 36 | 107 | 8.0 | 11.3 | 0.00 | 0.00 | 0.00 | 42 | 1014.1 |
| 20260906190511 | 36 | 127 | 8.0 | 14.5 | 0.00 | 0.00 | 0.00 | 44 | 1014.5 |
| 20260906190006 | 36 | 138 | 12.9 | 17.7 | 0.00 | 0.00 | 0.00 | 43 | 1014.1 |
| 20260906185505 | 37 | 139 | 11.3 | 12.9 | 0.00 | 0.00 | 0.00 | 41 | 1014.5 |
| 20260906185004 | 36 | 123 | 4.8 | 4.8 | 0.00 | 0.00 | 0.00 | 43 | 1014.5 |
| 20260906184459 | 38 | 124 | 8.0 | 9.7 | 0.00 | 0.00 | 0.00 | 41 | 1014.5 |
| 20260906183955 | 37 | 107 | 11.3 | 12.9 | 0.00 | 0.00 | 0.00 | 42 | 1014.5 |
| 20260906183451 | 36 | 210 | 4.8 | 4.8 | 0.00 | 0.00 | 0.00 | 44 | 1014.8 |
| 20260906182946 | 36 | 162 | 9.7 | 11.3 | 0.00 | 0.00 | 0.00 | 45 | 1014.8 |
| 20260906182442 | 37 | 108 | 8.0 | 11.3 | 0.00 | 0.00 | 0.00 | 44 | 1014.8 |
| 20260906181937 | 39 | 147 | 1.6 | 1.6 | 0.00 | 0.00 | 0.00 | 39 | 1015.2 |
| 20260906181433 | 37 | 157 | 0.0 | 0.0 | 0.00 | 0.00 | 0.00 | 41 | 1014.8 |
| 20260906180928 | 35 | 162 | 3.2 | 3.2 | 0.00 | 0.00 | 0.00 | 46 | 1015.2 |
| 20260906180423 | 36 | 145 | 3.2 | 3.2 | 0.00 | 0.00 | 0.00 | 46 | 1015.2 |
| 20260906175921 | 36 | 149 | 8.0 | 11.3 | 0.00 | 0.00 | 0.00 | 43 | 1015.5 |
| 20260906175416 | 37 | 157 | 1.6 | 1.6 | 0.00 | 0.00 | 0.00 | 44 | 1015.2 |
| 20260906174914 | 36 | 121 | 11.3 | 12.9 | 0.00 | 0.00 | 0.00 | 44 | 1015.5 |
| 20260906174414 | 36 | 122 | 9.7 | 12.9 | 0.00 | 0.00 | 0.00 | 45 | 1015.9 |
| 20260906173909 | 36 | 109 | 4.8 | 4.8 | 0.00 | 0.00 | 0.00 | 44 | 1015.5 |
| 20260906173404 | 35 | 152 | 8.0 | 12.9 | 0.00 | 0.00 | 0.00 | 45 | 1015.9 |
| 20260906172904 | 35 | 140 | 8.0 | 9.7 | 0.00 | 0.00 | 0.00 | 44 | 1015.9 |
| 20260906172400 | 36 | 152 | 14.5 | 16.1 | 0.00 | 0.00 | 0.00 | 45 | 1015.9 |
| 20260906171855 | 37 | 140 | 12.9 | 17.7 | 0.00 | 0.00 | 0.00 | 43 | 1016.2 |
| 20260906171350 | 38 | 154 | 0.0 | 1.6 | 0.00 | 0.00 | 0.00 | 40 | 1016.2 |
| 20260906170845 | 38 | 116 | 3.2 | 4.8 | 0.00 | 0.00 | 0.00 | 41 | 1015.9 |
| 20260906170341 | 37 | 154 | 1.6 | 3.2 | 0.00 | 0.00 | 0.00 | 42 | 1016.2 |
| 20260906165837 | 36 | 90 | 6.4 | 8.0 | 0.00 | 0.00 | 0.00 | 43 | 1016.2 |
| 20260906165336 | 36 | 147 | 3.2 | 4.8 | 0.00 | 0.00 | 0.00 | 45 | 1016.2 |
| 20260906164832 | 35 | 112 | 6.4 | 9.7 | 0.00 | 0.00 | 0.00 | 47 | 1016.2 |
| 20260906164331 | 36 | 150 | 0.0 | 1.6 | 0.00 | 0.00 | 0.00 | 46 | 1016.2 |
| 20260906163827 | 35 | 152 | 0.0 | 0.0 | 0.00 | 0.00 | 0.00 | 46 | 1016.2 |
| 20260906163323 | 34 | 99 | 6.4 | 11.3 | 0.00 | 0.00 | 0.00 | 48 | 1016.2 |
| 20260906162820 | 34 | 164 | 9.7 | 12.9 | 0.00 | 0.00 | 0.00 | 48 | 1016.2 |
| 20260906162320 | 35 | 154 | 1.6 | 3.2 | 0.00 | 0.00 | 0.00 | 48 | 1016.5 |
| 20260906161815 | 35 | 131 | 3.2 | 3.2 | 0.00 | 0.00 | 0.00 | 47 | 1016.2 |
| 20260906161314 | 35 | 123 | 3.2 | 4.8 | 0.00 | 0.00 | 0.00 | 49 | 1016.5 |
| 20260906160813 | 35 | 145 | 0.0 | 0.0 | 0.00 | 0.00 | 0.00 | 48 | 1016.5 |
| 20260906160307 | 34 | 151 | 0.0 | 1.6 | 0.00 | 0.00 | 0.00 | 51 | 1016.2 |
| 20260906155805 | 33 | 147 | 1.6 | 3.2 | 0.00 | 0.00 | 0.00 | 54 | 1016.5 |
| 20260906155300 | 33 | 137 | 1.6 | 4.8 | 0.00 | 0.00 | 0.00 | 53 | 1016.2 |
| 20260906154755 | 32 | 132 | 4.8 | 8.0 | 0.00 | 0.00 | 0.00 | 55 | 1016.2 |
| 20260906154251 | 32 | 147 | 0.0 | 1.6 | 0.00 | 0.00 | 0.00 | 55 | 1016.2 |
| 20260906153749 | 33 | 143 | 1.6 | 3.2 | 0.00 | 0.00 | 0.00 | 55 | 1016.2 |
| 20260906153243 | 32 | 146 | 0.0 | 0.0 | 0.00 | 0.00 | 0.00 | 56 | 1016.2 |
| 20260906152738 | 31 | 170 | 3.2 | 4.8 | 0.00 | 0.00 | 0.00 | 59 | 1016.2 |
| 20260906152233 | 32 | 123 | 3.2 | 3.2 | 0.00 | 0.00 | 0.00 | 59 | 1016.2 |
| 20260906151732 | 31 | 150 | 3.2 | 4.8 | 0.00 | 0.00 | 0.00 | 59 | 1016.2 |
| 20260906151228 | 32 | 146 | 0.0 | 1.6 | 0.00 | 0.00 | 0.00 | 58 | 1016.2 |
| 20260906150724 | 31 | 149 | 1.6 | 1.6 | 0.00 | 0.00 | 0.00 | 60 | 1016.2 |
| 20260906150219 | 32 | 142 | 0.0 | 0.0 | 0.00 | 0.00 | 0.00 | 59 | 1016.2 |
| 20260906145717 | 32 | 146 | 3.2 | 4.8 | 0.00 | 0.00 | 0.00 | 60 | 1016.2 |
| 20260906145211 | 32 | 144 | 0.0 | 1.6 | 0.00 | 0.00 | 0.00 | 60 | 1016.5 |
| 20260906144706 | 31 | 148 | 0.0 | 0.0 | 0.00 | 0.00 | 0.00 | 61 | 1016.5 |
| 20260906144201 | 30 | 147 | 1.6 | 1.6 | 0.00 | 0.00 | 0.00 | 63 | 1016.2 |
| 20260906143700 | 30 | 147 | 3.2 | 3.2 | 0.00 | 0.00 | 0.00 | 64 | 1016.5 |
| 20260906143158 | 29 | 142 | 3.2 | 3.2 | 0.00 | 0.00 | 0.00 | 66 | 1016.2 |
| 20260906142652 | 30 | 149 | 0.0 | 0.0 | 0.00 | 0.00 | 0.00 | 66 | 1016.2 |
| 20260906142147 | 29 | 141 | 1.6 | 1.6 | 0.00 | 0.00 | 0.00 | 67 | 1016.5 |
| 20260906141646 | 30 | 141 | 1.6 | 1.6 | 0.00 | 0.00 | 0.00 | 67 | 1016.5 |
| 20260906141141 | 29 | 144 | 0.0 | 0.0 | 0.00 | 0.00 | 0.00 | 68 | 1016.2 |
| 20260906140640 | 30 | 147 | 0.0 | 0.0 | 0.00 | 0.00 | 0.00 | 67 | 1016.2 |
| 20260906140135 | 28 | 149 | 0.0 | 0.0 | 0.00 | 0.00 | 0.00 | 69 | 1016.2 |
| 20260906135632 | 28 | 144 | 0.0 | 1.6 | 0.00 | 0.00 | 0.00 | 69 | 1016.5 |
| 20260906135128 | 28 | 146 | 0.0 | 0.0 | 0.00 | 0.00 | 0.00 | 70 | 1016.2 |
| 20260906134624 | 28 | 148 | 0.0 | 0.0 | 0.00 | 0.00 | 0.00 | 70 | 1016.2 |
| 20260906134119 | 28 | 149 | 0.0 | 0.0 | 0.00 | 0.00 | 0.00 | 71 | 1015.9 |
| 20260906133615 | 28 | 145 | 0.0 | 0.0 | 0.00 | 0.00 | 0.00 | 71 | 1016.2 |
| 20260906133115 | 27 | 147 | 0.0 | 0.0 | 0.00 | 0.00 | 0.00 | 74 | 1015.9 |
| 20260906132610 | 26 | 142 | 0.0 | 1.6 | 0.00 | 0.00 | 0.00 | 75 | 1016.2 |
| 20260906132106 | 26 | 146 | 0.0 | 0.0 | 0.00 | 0.00 | 0.00 | 76 | 1016.2 |
| 20260906131601 | 26 | 144 | 0.0 | 0.0 | 0.00 | 0.00 | 0.00 | 76 | 1016.2 |
| 20260906131056 | 26 | 145 | 0.0 | 0.0 | 0.00 | 0.00 | 0.00 | 76 | 1015.9 |
| 20260906130556 | 25 | 146 | 0.0 | 0.0 | 0.00 | 0.00 | 0.00 | 79 | 1016.2 |
| 20260906130052 | 24 | 151 | 0.0 | 0.0 | 0.00 | 0.00 | 0.00 | 82 | 1015.9 |
| 20260906125549 | 23 | 151 | 0.0 | 0.0 | 0.00 | 0.00 | 0.00 | 84 | 1015.9 |
| 20260906125048 | 23 | 152 | 0.0 | 0.0 | 0.00 | 0.00 | 0.00 | 86 | 1015.9 |
| 20260906124544 | 23 | 155 | 0.0 | 0.0 | 0.00 | 0.00 | 0.00 | 86 | 1015.9 |
| 20260906124039 | 22 | 155 | 0.0 | 0.0 | 0.00 | 0.00 | 0.00 | 86 | 1015.9 |
| 20260906123538 | 22 | 157 | 0.0 | 0.0 | 0.00 | 0.00 | 0.00 | 87 | 1015.9 |
| 20260906123034 | 22 | 157 | 0.0 | 0.0 | 0.00 | 0.00 | 0.00 | 87 | 1015.5 |
| 20260906122533 | 22 | 156 | 0.0 | 0.0 | 0.00 | 0.00 | 0.00 | 87 | 1015.5 |
| 20260906122029 | 22 | 155 | 0.0 | 0.0 | 0.00 | 0.00 | 0.00 | 87 | 1015.2 |
| 20260906121525 | 22 | 156 | 0.0 | 0.0 | 0.00 | 0.00 | 0.00 | 87 | 1015.2 |
| 20260906121022 | 22 | 155 | 0.0 | 0.0 | 0.00 | 0.00 | 0.00 | 87 | 1015.2 |
| 20260906120522 | 22 | 155 | 0.0 | 0.0 | 0.00 | 0.00 | 0.00 | 87 | 1015.2 |
| 20260906120019 | 22 | 154 | 0.0 | 0.0 | 0.00 | 0.00 | 0.00 | 87 | 1015.2 |
| 20260906115514 | 22 | 154 | 0.0 | 0.0 | 0.00 | 0.00 | 0.00 | 87 | 1015.2 |
| 20260906115008 | 22 | 154 | 0.0 | 0.0 | 0.00 | 0.00 | 0.00 | 86 | 1015.2 |
| 20260906114502 | 22 | 154 | 0.0 | 0.0 | 0.00 | 0.00 | 0.00 | 86 | 1015.2 |
| 20260906113958 | 22 | 154 | 0.0 | 0.0 | 0.00 | 0.00 | 0.00 | 86 | 1015.5 |
| 20260906113457 | 22 | 154 | 0.0 | 0.0 | 0.00 | 0.00 | 0.00 | 86 | 1015.2 |
| 20260906112952 | 22 | 157 | 0.0 | 0.0 | 0.00 | 0.00 | 0.00 | 86 | 1015.2 |
| 20260906112448 | 22 | 155 | 0.0 | 0.0 | 0.00 | 0.00 | 0.00 | 85 | 1015.2 |
| 20260906111943 | 23 | 155 | 0.0 | 0.0 | 0.00 | 0.00 | 0.00 | 85 | 1014.8 |
| 20260906111442 | 23 | 155 | 0.0 | 0.0 | 0.00 | 0.00 | 0.00 | 85 | 1015.2 |
| 20260906110938 | 23 | 155 | 0.0 | 0.0 | 0.00 | 0.00 | 0.00 | 85 | 1015.2 |
| 20260906110433 | 22 | 154 | 0.0 | 0.0 | 0.00 | 0.00 | 0.00 | 85 | 1014.8 |
| 20260906105932 | 23 | 154 | 0.0 | 0.0 | 0.00 | 0.00 | 0.00 | 85 | 1014.8 |
| 20260906105428 | 23 | 154 | 0.0 | 0.0 | 0.00 | 0.00 | 0.00 | 85 | 1014.8 |
| 20260906104924 | 23 | 154 | 0.0 | 0.0 | 0.00 | 0.00 | 0.00 | 84 | 1014.5 |
| 20260906104422 | 23 | 154 | 0.0 | 0.0 | 0.00 | 0.00 | 0.00 | 84 | 1014.5 |
| 20260906103922 | 23 | 154 | 0.0 | 0.0 | 0.00 | 0.00 | 0.00 | 84 | 1014.8 |
| 20260906103420 | 23 | 156 | 0.0 | 0.0 | 0.00 | 0.00 | 0.00 | 84 | 1014.8 |
| 20260906102916 | 23 | 155 | 0.0 | 0.0 | 0.00 | 0.00 | 0.00 | 83 | 1014.8 |
| 20260906102415 | 23 | 154 | 0.0 | 0.0 | 0.00 | 0.00 | 0.00 | 82 | 1014.8 |
| 20260906101910 | 23 | 155 | 0.0 | 0.0 | 0.00 | 0.00 | 0.00 | 82 | 1014.8 |
| 20260906101405 | 23 | 155 | 0.0 | 0.0 | 0.00 | 0.00 | 0.00 | 82 | 1014.5 |
| 20260906100901 | 23 | 157 | 0.0 | 0.0 | 0.00 | 0.00 | 0.00 | 82 | 1014.8 |
| 20260906100400 | 23 | 161 | 0.0 | 0.0 | 0.00 | 0.00 | 0.00 | 82 | 1014.8 |
| 20260906095854 | 23 | 155 | 0.0 | 0.0 | 0.00 | 0.00 | 0.00 | 82 | 1014.8 |
| 20260906095350 | 23 | 155 | 0.0 | 0.0 | 0.00 | 0.00 | 0.00 | 81 | 1014.5 |
| 20260906094844 | 24 | 155 | 0.0 | 0.0 | 0.00 | 0.00 | 0.00 | 80 | 1014.8 |
| 20260906094339 | 24 | 154 | 0.0 | 0.0 | 0.00 | 0.00 | 0.00 | 80 | 1014.8 |
| 20260906093835 | 24 | 154 | 0.0 | 0.0 | 0.00 | 0.00 | 0.00 | 80 | 1014.8 |
| 20260906093331 | 24 | 154 | 0.0 | 0.0 | 0.00 | 0.00 | 0.00 | 80 | 1014.8 |
| 20260906092826 | 25 | 154 | 0.0 | 0.0 | 0.00 | 0.00 | 0.00 | 79 | 1014.5 |
| 20260906092325 | 24 | 157 | 0.0 | 0.0 | 0.00 | 0.00 | 0.00 | 79 | 1014.5 |
| 20260906091821 | 24 | 157 | 0.0 | 0.0 | 0.00 | 0.00 | 0.00 | 79 | 1014.5 |
| 20260906091317 | 25 | 155 | 0.0 | 0.0 | 0.00 | 0.00 | 0.00 | 79 | 1014.5 |
| 20260906090814 | 25 | 154 | 0.0 | 0.0 | 0.00 | 0.00 | 0.00 | 78 | 1014.5 |
| 20260906090312 | 25 | 155 | 0.0 | 0.0 | 0.00 | 0.00 | 0.00 | 78 | 1014.5 |
| 20260906085812 | 25 | 155 | 0.0 | 0.0 | 0.00 | 0.00 | 0.00 | 77 | 1014.5 |
| 20260906085307 | 25 | 154 | 0.0 | 0.0 | 0.00 | 0.00 | 0.00 | 78 | 1014.5 |
| 20260906084800 | 25 | 155 | 0.0 | 0.0 | 0.00 | 0.00 | 0.00 | 78 | 1014.5 |
| 20260906084300 | 25 | 156 | 0.0 | 0.0 | 0.00 | 0.00 | 0.00 | 77 | 1014.5 |
| 20260906083755 | 25 | 155 | 0.0 | 0.0 | 0.00 | 0.00 | 0.00 | 77 | 1014.1 |
| 20260906083251 | 25 | 155 | 0.0 | 0.0 | 0.00 | 0.00 | 0.00 | 77 | 1014.1 |
| 20260906082745 | 25 | 150 | 0.0 | 0.0 | 0.00 | 0.00 | 0.00 | 77 | 1014.5 |
| 20260906082240 | 25 | 148 | 0.0 | 0.0 | 0.00 | 0.00 | 0.00 | 76 | 1014.1 |
| 20260906081737 | 25 | 154 | 0.0 | 0.0 | 0.00 | 0.00 | 0.00 | 76 | 1014.1 |
| 20260906081231 | 25 | 154 | 0.0 | 0.0 | 0.00 | 0.00 | 0.00 | 76 | 1014.1 |
| 20260906080727 | 25 | 154 | 0.0 | 0.0 | 0.00 | 0.00 | 0.00 | 76 | 1014.1 |
| 20260906080224 | 25 | 154 | 0.0 | 0.0 | 0.00 | 0.00 | 0.00 | 76 | 1014.1 |
| 20260906075717 | 25 | 154 | 0.0 | 0.0 | 0.00 | 0.00 | 0.00 | 76 | 1014.5 |
| 20260906075212 | 25 | 151 | 0.0 | 0.0 | 0.00 | 0.00 | 0.00 | 75 | 1014.5 |
| 20260906074707 | 25 | 150 | 0.0 | 0.0 | 0.00 | 0.00 | 0.00 | 75 | 1014.1 |
| 20260906074207 | 25 | 155 | 0.0 | 0.0 | 0.00 | 0.00 | 0.00 | 76 | 1014.5 |
| 20260906073702 | 25 | 157 | 0.0 | 0.0 | 0.00 | 0.00 | 0.00 | 75 | 1014.5 |
| 20260906073157 | 25 | 155 | 0.0 | 0.0 | 0.00 | 0.00 | 0.00 | 75 | 1014.1 |
| 20260906072652 | 26 | 157 | 0.0 | 0.0 | 0.00 | 0.00 | 0.00 | 74 | 1014.5 |
| 20260906072148 | 26 | 157 | 0.0 | 0.0 | 0.00 | 0.00 | 0.00 | 74 | 1014.1 |
| 20260906071644 | 26 | 154 | 0.0 | 0.0 | 0.00 | 0.00 | 0.00 | 73 | 1014.5 |
| 20260906071143 | 26 | 154 | 0.0 | 0.0 | 0.00 | 0.00 | 0.00 | 72 | 1014.1 |
| 20260906070640 | 27 | 154 | 0.0 | 0.0 | 0.00 | 0.00 | 0.00 | 71 | 1014.1 |
| 20260906070136 | 27 | 154 | 0.0 | 0.0 | 0.00 | 0.00 | 0.00 | 71 | 1014.5 |
| 20260906065635 | 27 | 157 | 0.0 | 1.6 | 0.00 | 0.00 | 0.00 | 71 | 1014.5 |
| 20260906065131 | 27 | 169 | 1.6 | 3.2 | 0.00 | 0.00 | 0.00 | 71 | 1014.5 |
| 20260906064626 | 27 | 151 | 0.0 | 0.0 | 0.00 | 0.00 | 0.00 | 69 | 1014.5 |
| 20260906064121 | 27 | 151 | 0.0 | 0.0 | 0.00 | 0.00 | 0.00 | 68 | 1014.8 |
| 20260906063616 | 28 | 151 | 0.0 | 0.0 | 0.00 | 0.00 | 0.00 | 67 | 1014.8 |
| 20260906063112 | 28 | 155 | 0.0 | 0.0 | 0.00 | 0.00 | 0.00 | 66 | 1014.5 |
| 20260906062608 | 28 | 154 | 0.0 | 0.0 | 0.00 | 0.00 | 0.00 | 65 | 1014.8 |
| 20260906062106 | 28 | 164 | 1.6 | 3.2 | 0.00 | 0.00 | 0.00 | 65 | 1014.8 |
| 20260906061603 | 28 | 150 | 1.6 | 3.2 | 0.00 | 0.00 | 0.00 | 66 | 1015.2 |
| 20260906061102 | 27 | 157 | 0.0 | 0.0 | 0.00 | 0.00 | 0.00 | 69 | 1014.8 |
| 20260906060559 | 27 | 157 | 0.0 | 0.0 | 0.00 | 0.00 | 0.00 | 69 | 1015.2 |
| 20260906060056 | 27 | 154 | 0.0 | 0.0 | 0.00 | 0.00 | 0.00 | 68 | 1015.2 |
| 20260906055551 | 28 | 151 | 0.0 | 0.0 | 0.00 | 0.00 | 0.00 | 67 | 1015.2 |
| 20260906055046 | 28 | 151 | 0.0 | 0.0 | 0.00 | 0.00 | 0.00 | 66 | 1015.2 |
| 20260906054541 | 28 | 154 | 0.0 | 0.0 | 0.00 | 0.00 | 0.00 | 66 | 1015.2 |
| 20260906054036 | 28 | 157 | 0.0 | 0.0 | 0.00 | 0.00 | 0.00 | 65 | 1015.2 |
| 20260906053533 | 29 | 156 | 0.0 | 0.0 | 0.00 | 0.00 | 0.00 | 64 | 1015.2 |
| 20260906053028 | 29 | 151 | 0.0 | 0.0 | 0.00 | 0.00 | 0.00 | 64 | 1015.2 |
| 20260906052524 | 29 | 150 | 0.0 | 0.0 | 0.00 | 0.00 | 0.00 | 64 | 1014.8 |
| 20260906052021 | 29 | 154 | 1.6 | 1.6 | 0.00 | 0.00 | 0.00 | 64 | 1014.8 |
| 20260906051516 | 29 | 149 | 4.8 | 4.8 | 0.00 | 0.00 | 0.00 | 64 | 1014.8 |
| 20260906051011 | 29 | 150 | 4.8 | 4.8 | 0.00 | 0.00 | 0.00 | 64 | 1014.8 |
| 20260906050506 | 29 | 163 | 1.6 | 3.2 | 0.00 | 0.00 | 0.00 | 63 | 1014.8 |
| 20260906050000 | 29 | 137 | 8.0 | 9.7 | 0.00 | 0.00 | 0.00 | 63 | 1014.8 |
| 20260906045458 | 29 | 131 | 4.8 | 8.0 | 0.00 | 0.00 | 0.00 | 63 | 1014.8 |
| 20260906044955 | 30 | 120 | 4.8 | 8.0 | 0.00 | 0.00 | 0.00 | 63 | 1015.2 |
| 20260906044449 | 29 | 146 | 6.4 | 9.7 | 0.00 | 0.00 | 0.00 | 63 | 1014.8 |
| 20260906043946 | 29 | 147 | 4.8 | 4.8 | 0.00 | 0.00 | 0.00 | 63 | 1014.8 |
| 20260906043441 | 30 | 146 | 4.8 | 4.8 | 0.00 | 0.00 | 0.00 | 62 | 1014.8 |
| 20260906042937 | 30 | 140 | 6.4 | 8.0 | 0.00 | 0.00 | 0.00 | 62 | 1014.8 |
| 20260906042436 | 30 | 150 | 6.4 | 8.0 | 0.00 | 0.00 | 0.00 | 62 | 1014.8 |
| 20260906041931 | 30 | 144 | 4.8 | 4.8 | 0.00 | 0.00 | 0.00 | 62 | 1014.8 |
| 20260906041427 | 30 | 141 | 6.4 | 8.0 | 0.00 | 0.00 | 0.00 | 61 | 1014.5 |
| 20260906040926 | 30 | 147 | 3.2 | 3.2 | 0.00 | 0.00 | 0.00 | 60 | 1014.8 |
| 20260906040422 | 30 | 136 | 3.2 | 3.2 | 0.00 | 0.00 | 0.00 | 60 | 1014.5 |
| 20260906035917 | 30 | 150 | 3.2 | 3.2 | 0.00 | 0.00 | 0.00 | 59 | 1014.5 |
| 20260906035412 | 30 | 137 | 4.8 | 4.8 | 0.00 | 0.00 | 0.00 | 58 | 1014.5 |
| 20260906034908 | 30 | 136 | 4.8 | 4.8 | 0.00 | 0.00 | 0.00 | 58 | 1014.5 |
| 20260906034402 | 30 | 151 | 4.8 | 4.8 | 0.00 | 0.00 | 0.00 | 57 | 1014.8 |
| 20260906033858 | 30 | 128 | 9.7 | 12.9 | 0.00 | 0.00 | 0.00 | 56 | 1014.5 |
| 20260906033357 | 30 | 145 | 4.8 | 4.8 | 0.00 | 0.00 | 0.00 | 56 | 1014.5 |
| 20260906032853 | 30 | 137 | 3.2 | 4.8 | 0.00 | 0.00 | 0.00 | 55 | 1014.5 |
| 20260906032349 | 30 | 140 | 4.8 | 8.0 | 0.00 | 0.00 | 0.00 | 54 | 1014.5 |
| 20260906031844 | 31 | 143 | 8.0 | 11.3 | 0.00 | 0.00 | 0.00 | 53 | 1014.1 |
| 20260906031339 | 30 | 147 | 6.4 | 8.0 | 0.00 | 0.00 | 0.00 | 53 | 1014.1 |
| 20260906030839 | 30 | 136 | 4.8 | 4.8 | 0.00 | 0.00 | 0.00 | 53 | 1014.1 |
| 20260906030335 | 30 | 136 | 4.8 | 4.8 | 0.00 | 0.00 | 0.00 | 53 | 1014.5 |
| 20260906025829 | 30 | 134 | 6.4 | 11.3 | 0.00 | 0.00 | 0.00 | 53 | 1014.1 |
| 20260906025323 | 30 | 149 | 1.6 | 1.6 | 0.00 | 0.00 | 0.00 | 54 | 1014.1 |
| 20260906024822 | 30 | 150 | 1.6 | 1.6 | 0.00 | 0.00 | 0.00 | 53 | 1014.1 |
| 20260906024321 | 30 | 151 | 0.0 | 0.0 | 0.00 | 0.00 | 0.00 | 53 | 1013.7 |
| 20260906023817 | 30 | 150 | 0.0 | 0.0 | 0.00 | 0.00 | 0.00 | 53 | 1013.7 |
| 20260906023312 | 30 | 151 | 0.0 | 0.0 | 0.00 | 0.00 | 0.00 | 52 | 1013.7 |
| 20260906022808 | 31 | 152 | 0.0 | 0.0 | 0.00 | 0.00 | 0.00 | 51 | 1013.4 |
| 20260906022306 | 31 | 154 | 0.0 | 0.0 | 0.00 | 0.00 | 0.00 | 51 | 1013.7 |
| 20260906021759 | 31 | 155 | 0.0 | 1.6 | 0.00 | 0.00 | 0.00 | 51 | 1013.4 |
| 20260906021258 | 31 | 154 | 0.0 | 0.0 | 0.00 | 0.00 | 0.00 | 50 | 1013.4 |
| 20260906020753 | 31 | 150 | 0.0 | 0.0 | 0.00 | 0.00 | 0.00 | 49 | 1013.4 |
| 20260906020253 | 31 | 151 | 0.0 | 0.0 | 0.00 | 0.00 | 0.00 | 49 | 1013.4 |
| 20260906015753 | 32 | 152 | 0.0 | 0.0 | 0.00 | 0.00 | 0.00 | 49 | 1013.4 |
| 20260906015251 | 32 | 150 | 0.0 | 1.6 | 0.00 | 0.00 | 0.00 | 48 | 1013.1 |
| 20260906014746 | 32 | 154 | 1.6 | 1.6 | 0.00 | 0.00 | 0.00 | 48 | 1013.1 |
| 20260906014241 | 32 | 150 | 1.6 | 3.2 | 0.00 | 0.00 | 0.00 | 48 | 1013.1 |
| 20260906013737 | 32 | 152 | 0.0 | 0.0 | 0.00 | 0.00 | 0.00 | 47 | 1013.1 |
| 20260906013237 | 32 | 140 | 1.6 | 1.6 | 0.00 | 0.00 | 0.00 | 47 | 1012.7 |
| 20260906012733 | 33 | 144 | 1.6 | 3.2 | 0.00 | 0.00 | 0.00 | 46 | 1012.7 |
| 20260906012228 | 33 | 142 | 4.8 | 4.8 | 0.00 | 0.00 | 0.00 | 45 | 1012.7 |
| 20260906011723 | 33 | 142 | 1.6 | 3.2 | 0.00 | 0.00 | 0.00 | 45 | 1012.7 |
| 20260906011223 | 33 | 133 | 4.8 | 4.8 | 0.00 | 0.00 | 0.00 | 45 | 1012.7 |
| 20260906010718 | 33 | 150 | 3.2 | 3.2 | 0.00 | 0.00 | 0.00 | 44 | 1012.7 |
| 20260906010214 | 33 | 147 | 3.2 | 4.8 | 0.00 | 0.00 | 0.00 | 44 | 1012.7 |
| 20260906005709 | 34 | 143 | 3.2 | 3.2 | 0.00 | 0.00 | 0.00 | 43 | 1012.7 |
| 20260906005209 | 34 | 138 | 3.2 | 4.8 | 0.00 | 0.00 | 0.00 | 43 | 1012.4 |
| 20260906004707 | 35 | 147 | 4.8 | 4.8 | 0.00 | 0.00 | 0.00 | 42 | 1012.7 |
| 20260906004203 | 35 | 135 | 1.6 | 3.2 | 0.00 | 0.00 | 0.00 | 41 | 1012.4 |
| 20260906003658 | 35 | 119 | 4.8 | 8.0 | 0.00 | 0.00 | 0.00 | 41 | 1012.4 |
| 20260906003153 | 35 | 129 | 3.2 | 3.2 | 0.00 | 0.00 | 0.00 | 40 | 1012.4 |
| 20260906002648 | 35 | 151 | 0.0 | 1.6 | 0.00 | 0.00 | 0.00 | 40 | 1012.4 |
| 20260906002143 | 35 | 117 | 6.4 | 9.7 | 0.00 | 0.00 | 0.00 | 39 | 1012.4 |
| 20260906001638 | 35 | 144 | 11.3 | 12.9 | 0.00 | 0.00 | 0.00 | 39 | 1012.4 |
| 20260906001138 | 36 | 136 | 12.9 | 14.5 | 0.00 | 0.00 | 0.00 | 39 | 1012.4 |
| 20260906000633 | 36 | 152 | 3.2 | 3.2 | 0.00 | 0.00 | 0.00 | 38 | 1012.4 |
| 20260906000129 | 36 | 140 | 6.4 | 8.0 | 0.00 | 0.00 | 0.00 | 38 | 1012.4 |
| 20260905235627 | 36 | 165 | 11.3 | 12.9 | 0.00 | 0.00 | 0.00 | 38 | 1012.4 |
| 20260905235123 | 36 | 147 | 6.4 | 8.0 | 0.00 | 0.00 | 0.00 | 37 | 1012.0 |
| 20260905234618 | 36 | 169 | 4.8 | 4.8 | 0.00 | 0.00 | 0.00 | 37 | 1012.0 |
| 20260905234114 | 36 | 159 | 6.4 | 8.0 | 0.00 | 0.00 | 0.00 | 37 | 1012.0 |
| 20260905233608 | 36 | 135 | 9.7 | 12.9 | 0.00 | 0.00 | 0.00 | 37 | 1012.0 |
| 20260905233102 | 36 | 143 | 4.8 | 4.8 | 0.00 | 0.00 | 0.00 | 37 | 1012.0 |
| 20260905232558 | 37 | 154 | 0.0 | 0.0 | 0.00 | 0.00 | 0.00 | 35 | 1012.0 |
| 20260905232053 | 36 | 147 | 11.3 | 12.9 | 0.00 | 0.00 | 0.00 | 35 | 1012.0 |
| 20260905231548 | 37 | 150 | 6.4 | 9.7 | 0.00 | 0.00 | 0.00 | 35 | 1012.0 |
| 20260905231045 | 37 | 124 | 8.0 | 11.3 | 0.00 | 0.00 | 0.00 | 35 | 1012.0 |
| 20260905230544 | 37 | 121 | 1.6 | 3.2 | 0.00 | 0.00 | 0.00 | 35 | 1012.0 |
| 20260905230043 | 37 | 140 | 8.0 | 11.3 | 0.00 | 0.00 | 0.00 | 36 | 1012.0 |
| 20260905225537 | 37 | 136 | 1.6 | 1.6 | 0.00 | 0.00 | 0.00 | 35 | 1012.0 |
| 20260905225033 | 36 | 154 | 8.0 | 9.7 | 0.00 | 0.00 | 0.00 | 36 | 1012.0 |
| 20260905224532 | 37 | 151 | 3.2 | 3.2 | 0.00 | 0.00 | 0.00 | 35 | 1011.7 |
| 20260905224032 | 37 | 137 | 8.0 | 9.7 | 0.00 | 0.00 | 0.00 | 34 | 1012.0 |
| 20260905223530 | 37 | 152 | 11.3 | 14.5 | 0.00 | 0.00 | 0.00 | 34 | 1012.0 |
| 20260905223025 | 37 | 148 | 4.8 | 4.8 | 0.00 | 0.00 | 0.00 | 35 | 1012.0 |
| 20260905222525 | 37 | 129 | 8.0 | 9.7 | 0.00 | 0.00 | 0.00 | 34 | 1012.0 |
| 20260905222020 | 37 | 155 | 11.3 | 12.9 | 0.00 | 0.00 | 0.00 | 35 | 1012.0 |